sensor_id;sensor_type;location;lat;lon;timestamp;pressure;altitude;pressure_sealevel;temperature;humidity
80397;BME280;69721;55.894;-3.052;2023-06-05T00:00:42;102306.28;;;14.96;44.92
80397;BME280;69721;55.894;-3.052;2023-06-05T00:03:07;102307.57;;;15.86;42.84
80397;BME280;69721;55.894;-3.052;2023-06-05T00:05:33;102311.56;;;16.44;41.67
80397;BME280;69721;55.894;-3.052;2023-06-05T00:07:58;102309.52;;;16.40;41.71
80397;BME280;69721;55.894;-3.052;2023-06-05T00:10:24;102308.77;;;16.15;41.95
80397;BME280;69721;55.894;-3.052;2023-06-05T00:12:49;102308.44;;;15.90;42.40
80397;BME280;69721;55.894;-3.052;2023-06-05T00:15:15;102310.90;;;15.31;43.32
80397;BME280;69721;55.894;-3.052;2023-06-05T00:17:40;102307.99;;;15.19;43.63
80397;BME280;69721;55.894;-3.052;2023-06-05T00:20:06;102305.55;;;16.41;41.76
80397;BME280;69721;55.894;-3.052;2023-06-05T00:22:31;102302.67;;;15.89;42.40
80397;BME280;69721;55.894;-3.052;2023-06-05T00:24:56;102306.47;;;15.56;42.86
80397;BME280;69721;55.894;-3.052;2023-06-05T00:27:22;102303.00;;;15.44;43.08
80397;BME280;69721;55.894;-3.052;2023-06-05T00:29:47;102303.36;;;15.46;42.93
80397;BME280;69721;55.894;-3.052;2023-06-05T00:32:12;102302.27;;;16.17;41.77
80397;BME280;69721;55.894;-3.052;2023-06-05T00:34:37;102307.92;;;15.16;43.17
80397;BME280;69721;55.894;-3.052;2023-06-05T00:37:02;102304.83;;;15.35;42.90
80397;BME280;69721;55.894;-3.052;2023-06-05T00:39:28;102302.37;;;15.19;43.46
80397;BME280;69721;55.894;-3.052;2023-06-05T00:41:53;102302.38;;;15.19;43.52
80397;BME280;69721;55.894;-3.052;2023-06-05T00:44:18;102302.30;;;15.23;43.17
80397;BME280;69721;55.894;-3.052;2023-06-05T00:46:44;102303.81;;;15.53;42.35
80397;BME280;69721;55.894;-3.052;2023-06-05T00:49:10;102302.08;;;15.64;42.44
80397;BME280;69721;55.894;-3.052;2023-06-05T00:51:35;102302.87;;;15.82;42.02
80397;BME280;69721;55.894;-3.052;2023-06-05T00:54:00;102300.38;;;15.56;42.66
80397;BME280;69721;55.894;-3.052;2023-06-05T00:56:25;102301.85;;;15.62;42.88
80397;BME280;69721;55.894;-3.052;2023-06-05T00:58:53;102301.72;;;15.75;42.19
80397;BME280;69721;55.894;-3.052;2023-06-05T01:01:17;102297.60;;;15.59;42.49
80397;BME280;69721;55.894;-3.052;2023-06-05T01:03:43;102300.17;;;15.68;42.18
80397;BME280;69721;55.894;-3.052;2023-06-05T01:06:08;102297.30;;;15.86;41.92
80397;BME280;69721;55.894;-3.052;2023-06-05T01:08:35;102293.05;;;16.16;41.52
80397;BME280;69721;55.894;-3.052;2023-06-05T01:11:01;102295.22;;;15.87;41.47
80397;BME280;69721;55.894;-3.052;2023-06-05T01:13:26;102294.63;;;15.99;41.38
80397;BME280;69721;55.894;-3.052;2023-06-05T01:15:51;102297.95;;;15.90;41.50
80397;BME280;69721;55.894;-3.052;2023-06-05T01:18:16;102293.11;;;15.97;41.21
80397;BME280;69721;55.894;-3.052;2023-06-05T01:20:41;102296.30;;;16.16;41.34
80397;BME280;69721;55.894;-3.052;2023-06-05T01:23:06;102296.58;;;16.01;41.87
80397;BME280;69721;55.894;-3.052;2023-06-05T01:25:31;102293.17;;;15.87;41.42
80397;BME280;69721;55.894;-3.052;2023-06-05T01:28:02;102291.21;;;15.83;41.69
80397;BME280;69721;55.894;-3.052;2023-06-05T01:30:27;102292.37;;;15.18;42.81
80397;BME280;69721;55.894;-3.052;2023-06-05T01:32:52;102292.41;;;15.58;42.17
80397;BME280;69721;55.894;-3.052;2023-06-05T01:35:13;102293.60;;;15.73;41.90
80397;BME280;69721;55.894;-3.052;2023-06-05T01:37:40;102297.08;;;15.60;41.65
80397;BME280;69721;55.894;-3.052;2023-06-05T01:40:05;102294.96;;;15.54;41.55
80397;BME280;69721;55.894;-3.052;2023-06-05T01:42:29;102295.68;;;15.58;41.44
80397;BME280;69721;55.894;-3.052;2023-06-05T01:44:54;102297.56;;;15.89;41.18
80397;BME280;69721;55.894;-3.052;2023-06-05T01:47:20;102299.57;;;15.44;42.07
80397;BME280;69721;55.894;-3.052;2023-06-05T01:49:46;102298.36;;;15.44;42.13
80397;BME280;69721;55.894;-3.052;2023-06-05T01:52:11;102301.25;;;15.64;41.67
80397;BME280;69721;55.894;-3.052;2023-06-05T01:54:37;102302.16;;;15.04;42.22
80397;BME280;69721;55.894;-3.052;2023-06-05T01:57:02;102303.68;;;15.38;42.04
80397;BME280;69721;55.894;-3.052;2023-06-05T01:59:27;102304.67;;;15.38;41.97
80397;BME280;69721;55.894;-3.052;2023-06-05T02:01:53;102305.21;;;15.36;42.06
80397;BME280;69721;55.894;-3.052;2023-06-05T02:04:18;102306.91;;;15.13;41.96
80397;BME280;69721;55.894;-3.052;2023-06-05T02:06:43;102310.16;;;15.29;42.12
80397;BME280;69721;55.894;-3.052;2023-06-05T02:09:10;102314.95;;;15.41;41.81
80397;BME280;69721;55.894;-3.052;2023-06-05T02:11:35;102316.60;;;15.25;42.42
80397;BME280;69721;55.894;-3.052;2023-06-05T02:14:00;102317.16;;;15.07;42.71
80397;BME280;69721;55.894;-3.052;2023-06-05T02:16:25;102317.89;;;14.99;42.83
80397;BME280;69721;55.894;-3.052;2023-06-05T02:18:51;102317.06;;;15.10;42.71
80397;BME280;69721;55.894;-3.052;2023-06-05T02:21:17;102319.62;;;15.28;42.44
80397;BME280;69721;55.894;-3.052;2023-06-05T02:23:42;102318.05;;;15.14;42.53
80397;BME280;69721;55.894;-3.052;2023-06-05T02:26:07;102316.08;;;15.08;42.48
80397;BME280;69721;55.894;-3.052;2023-06-05T02:28:32;102314.95;;;14.80;42.85
80397;BME280;69721;55.894;-3.052;2023-06-05T02:30:58;102314.52;;;14.86;42.67
80397;BME280;69721;55.894;-3.052;2023-06-05T02:33:23;102311.85;;;14.72;42.86
80397;BME280;69721;55.894;-3.052;2023-06-05T02:35:48;102311.79;;;15.11;42.90
80397;BME280;69721;55.894;-3.052;2023-06-05T02:38:14;102310.50;;;14.81;42.83
80397;BME280;69721;55.894;-3.052;2023-06-05T02:40:40;102306.64;;;14.90;42.33
80397;BME280;69721;55.894;-3.052;2023-06-05T02:43:05;102306.72;;;15.06;42.54
80397;BME280;69721;55.894;-3.052;2023-06-05T02:45:32;102307.42;;;15.04;42.54
80397;BME280;69721;55.894;-3.052;2023-06-05T02:47:56;102308.01;;;15.20;42.19
80397;BME280;69721;55.894;-3.052;2023-06-05T02:50:21;102309.77;;;14.13;43.70
80397;BME280;69721;55.894;-3.052;2023-06-05T02:52:47;102302.86;;;14.86;42.73
80397;BME280;69721;55.894;-3.052;2023-06-05T02:55:12;102302.15;;;14.65;42.68
80397;BME280;69721;55.894;-3.052;2023-06-05T02:57:38;102305.10;;;15.28;41.99
80397;BME280;69721;55.894;-3.052;2023-06-05T03:00:04;102306.31;;;15.29;42.03
80397;BME280;69721;55.894;-3.052;2023-06-05T03:02:30;102305.52;;;15.68;41.07
80397;BME280;69721;55.894;-3.052;2023-06-05T03:04:55;102302.88;;;15.46;41.50
80397;BME280;69721;55.894;-3.052;2023-06-05T03:07:21;102300.28;;;15.69;41.11
80397;BME280;69721;55.894;-3.052;2023-06-05T03:09:46;102300.27;;;15.63;41.27
80397;BME280;69721;55.894;-3.052;2023-06-05T03:12:11;102301.38;;;15.25;41.80
80397;BME280;69721;55.894;-3.052;2023-06-05T03:14:37;102301.07;;;15.16;42.02
80397;BME280;69721;55.894;-3.052;2023-06-05T03:17:02;102298.24;;;14.90;42.36
80397;BME280;69721;55.894;-3.052;2023-06-05T03:19:28;102301.18;;;15.20;41.74
80397;BME280;69721;55.894;-3.052;2023-06-05T03:21:53;102298.32;;;15.19;41.42
80397;BME280;69721;55.894;-3.052;2023-06-05T03:24:18;102299.03;;;15.54;41.13
80397;BME280;69721;55.894;-3.052;2023-06-05T03:26:44;102298.63;;;15.51;41.09
80397;BME280;69721;55.894;-3.052;2023-06-05T03:29:10;102297.87;;;14.97;41.80
80397;BME280;69721;55.894;-3.052;2023-06-05T03:31:34;102294.92;;;14.75;42.18
80397;BME280;69721;55.894;-3.052;2023-06-05T03:34:00;102295.04;;;14.75;42.05
80397;BME280;69721;55.894;-3.052;2023-06-05T03:36:25;102295.48;;;14.51;42.29
80397;BME280;69721;55.894;-3.052;2023-06-05T03:38:50;102299.75;;;14.24;42.83
80397;BME280;69721;55.894;-3.052;2023-06-05T03:41:15;102297.68;;;14.12;43.61
80397;BME280;69721;55.894;-3.052;2023-06-05T03:43:41;102299.36;;;14.23;43.38
80397;BME280;69721;55.894;-3.052;2023-06-05T03:46:06;102301.49;;;14.09;43.80
80397;BME280;69721;55.894;-3.052;2023-06-05T03:48:31;102302.64;;;13.92;44.10
80397;BME280;69721;55.894;-3.052;2023-06-05T03:50:57;102303.99;;;13.89;43.88
80397;BME280;69721;55.894;-3.052;2023-06-05T03:53:23;102304.96;;;14.33;43.16
80397;BME280;69721;55.894;-3.052;2023-06-05T03:55:48;102303.97;;;14.56;42.67
80397;BME280;69721;55.894;-3.052;2023-06-05T03:58:14;102302.50;;;14.94;42.78
80397;BME280;69721;55.894;-3.052;2023-06-05T04:00:39;102314.99;;;14.42;43.33
80397;BME280;69721;55.894;-3.052;2023-06-05T04:03:04;102315.12;;;14.56;43.06
80397;BME280;69721;55.894;-3.052;2023-06-05T04:05:30;102314.71;;;14.77;42.48
80397;BME280;69721;55.894;-3.052;2023-06-05T04:07:55;102315.13;;;13.96;44.11
80397;BME280;69721;55.894;-3.052;2023-06-05T04:10:20;102317.60;;;12.92;46.45
80397;BME280;69721;55.894;-3.052;2023-06-05T04:12:45;102314.33;;;13.70;44.88
80397;BME280;69721;55.894;-3.052;2023-06-05T04:15:11;102310.88;;;14.00;43.94
80397;BME280;69721;55.894;-3.052;2023-06-05T04:17:36;102311.54;;;13.48;44.92
80397;BME280;69721;55.894;-3.052;2023-06-05T04:20:02;102301.39;;;14.38;43.58
80397;BME280;69721;55.894;-3.052;2023-06-05T04:22:27;102304.89;;;14.65;43.09
80397;BME280;69721;55.894;-3.052;2023-06-05T04:24:53;102303.35;;;14.94;42.36
80397;BME280;69721;55.894;-3.052;2023-06-05T04:27:18;102307.97;;;14.03;43.77
80397;BME280;69721;55.894;-3.052;2023-06-05T04:29:44;102308.72;;;15.03;42.33
80397;BME280;69721;55.894;-3.052;2023-06-05T04:32:09;102306.10;;;14.70;43.42
80397;BME280;69721;55.894;-3.052;2023-06-05T04:34:35;102304.87;;;14.90;42.82
80397;BME280;69721;55.894;-3.052;2023-06-05T04:37:00;102305.21;;;14.89;42.87
80397;BME280;69721;55.894;-3.052;2023-06-05T04:39:26;102304.56;;;14.77;42.27
80397;BME280;69721;55.894;-3.052;2023-06-05T04:41:51;102306.36;;;14.98;42.53
80397;BME280;69721;55.894;-3.052;2023-06-05T04:44:17;102308.63;;;13.91;43.60
80397;BME280;69721;55.894;-3.052;2023-06-05T04:46:43;102306.11;;;14.54;43.53
80397;BME280;69721;55.894;-3.052;2023-06-05T04:49:08;102306.92;;;14.11;43.37
80397;BME280;69721;55.894;-3.052;2023-06-05T04:51:33;102305.85;;;14.45;43.59
80397;BME280;69721;55.894;-3.052;2023-06-05T04:54:04;102310.11;;;13.57;45.02
80397;BME280;69721;55.894;-3.052;2023-06-05T04:56:24;102303.55;;;13.86;43.76
80397;BME280;69721;55.894;-3.052;2023-06-05T04:58:49;102304.22;;;14.77;43.12
80397;BME280;69721;55.894;-3.052;2023-06-05T05:01:15;102305.39;;;14.29;43.39
80397;BME280;69721;55.894;-3.052;2023-06-05T05:03:40;102308.59;;;14.10;43.99
80397;BME280;69721;55.894;-3.052;2023-06-05T05:06:06;102306.37;;;14.39;43.71
80397;BME280;69721;55.894;-3.052;2023-06-05T05:08:31;102307.09;;;14.86;43.55
80397;BME280;69721;55.894;-3.052;2023-06-05T05:10:56;102309.26;;;14.95;43.46
80397;BME280;69721;55.894;-3.052;2023-06-05T05:13:23;102308.39;;;14.97;43.12
80397;BME280;69721;55.894;-3.052;2023-06-05T05:15:48;102307.45;;;15.08;42.47
80397;BME280;69721;55.894;-3.052;2023-06-05T05:18:13;102309.45;;;15.48;41.90
80397;BME280;69721;55.894;-3.052;2023-06-05T05:20:38;102307.93;;;15.73;42.06
80397;BME280;69721;55.894;-3.052;2023-06-05T05:23:04;102301.69;;;15.85;41.66
80397;BME280;69721;55.894;-3.052;2023-06-05T05:25:29;102299.98;;;15.96;41.34
80397;BME280;69721;55.894;-3.052;2023-06-05T05:27:55;102302.09;;;16.24;40.91
80397;BME280;69721;55.894;-3.052;2023-06-05T05:30:20;102302.24;;;16.71;40.09
80397;BME280;69721;55.894;-3.052;2023-06-05T05:32:46;102303.90;;;16.16;40.93
80397;BME280;69721;55.894;-3.052;2023-06-05T05:35:11;102306.37;;;16.71;40.12
80397;BME280;69721;55.894;-3.052;2023-06-05T05:37:36;102305.92;;;16.71;40.17
80397;BME280;69721;55.894;-3.052;2023-06-05T05:40:02;102307.15;;;16.33;40.75
80397;BME280;69721;55.894;-3.052;2023-06-05T05:42:28;102303.24;;;16.33;40.99
80397;BME280;69721;55.894;-3.052;2023-06-05T05:44:54;102301.74;;;15.88;41.33
80397;BME280;69721;55.894;-3.052;2023-06-05T05:47:19;102306.29;;;15.00;42.84
80397;BME280;69721;55.894;-3.052;2023-06-05T05:49:44;102305.16;;;16.44;40.88
80397;BME280;69721;55.894;-3.052;2023-06-05T05:52:10;102306.27;;;15.98;41.77
80397;BME280;69721;55.894;-3.052;2023-06-05T05:54:36;102303.90;;;16.16;41.51
80397;BME280;69721;55.894;-3.052;2023-06-05T05:57:01;102305.68;;;15.50;42.05
80397;BME280;69721;55.894;-3.052;2023-06-05T05:59:26;102304.88;;;16.11;40.97
80397;BME280;69721;55.894;-3.052;2023-06-05T06:01:52;102303.10;;;15.84;41.64
80397;BME280;69721;55.894;-3.052;2023-06-05T06:04:17;102305.97;;;15.45;42.15
80397;BME280;69721;55.894;-3.052;2023-06-05T06:06:42;102303.03;;;15.94;41.64
80397;BME280;69721;55.894;-3.052;2023-06-05T06:09:08;102302.40;;;15.59;41.60
80397;BME280;69721;55.894;-3.052;2023-06-05T06:11:36;102307.03;;;16.25;41.16
80397;BME280;69721;55.894;-3.052;2023-06-05T06:13:59;102312.01;;;15.76;42.38
80397;BME280;69721;55.894;-3.052;2023-06-05T06:16:25;102311.06;;;15.96;41.70
80397;BME280;69721;55.894;-3.052;2023-06-05T06:18:50;102315.57;;;16.50;40.62
80397;BME280;69721;55.894;-3.052;2023-06-05T06:21:15;102314.81;;;16.49;41.24
80397;BME280;69721;55.894;-3.052;2023-06-05T06:23:41;102313.92;;;16.72;41.56
80397;BME280;69721;55.894;-3.052;2023-06-05T06:26:06;102312.03;;;16.43;40.54
80397;BME280;69721;55.894;-3.052;2023-06-05T06:28:32;102310.91;;;15.68;41.99
80397;BME280;69721;55.894;-3.052;2023-06-05T06:30:57;102308.17;;;16.20;41.30
80397;BME280;69721;55.894;-3.052;2023-06-05T06:33:23;102310.63;;;16.43;40.65
80397;BME280;69721;55.894;-3.052;2023-06-05T06:35:48;102314.20;;;15.69;42.89
80397;BME280;69721;55.894;-3.052;2023-06-05T06:38:14;102314.21;;;15.97;41.83
80397;BME280;69721;55.894;-3.052;2023-06-05T06:40:39;102318.55;;;15.81;42.24
80397;BME280;69721;55.894;-3.052;2023-06-05T06:43:04;102316.64;;;16.43;41.00
80397;BME280;69721;55.894;-3.052;2023-06-05T06:45:30;102313.14;;;16.22;41.77
80397;BME280;69721;55.894;-3.052;2023-06-05T06:47:55;102319.90;;;16.38;40.62
80397;BME280;69721;55.894;-3.052;2023-06-05T06:50:21;102317.67;;;16.30;40.94
80397;BME280;69721;55.894;-3.052;2023-06-05T06:52:46;102317.12;;;16.35;41.17
80397;BME280;69721;55.894;-3.052;2023-06-05T06:55:12;102319.97;;;15.90;41.07
80397;BME280;69721;55.894;-3.052;2023-06-05T06:57:37;102323.50;;;15.49;42.46
80397;BME280;69721;55.894;-3.052;2023-06-05T07:00:03;102323.07;;;15.13;43.79
80397;BME280;69721;55.894;-3.052;2023-06-05T07:02:28;102319.53;;;15.74;42.58
80397;BME280;69721;55.894;-3.052;2023-06-05T07:04:53;102323.37;;;14.50;44.81
80397;BME280;69721;55.894;-3.052;2023-06-05T07:07:19;102325.90;;;14.68;44.44
80397;BME280;69721;55.894;-3.052;2023-06-05T07:09:45;102333.13;;;15.62;42.48
80397;BME280;69721;55.894;-3.052;2023-06-05T07:12:11;102329.52;;;16.24;41.33
80397;BME280;69721;55.894;-3.052;2023-06-05T07:14:35;102334.38;;;15.79;42.03
80397;BME280;69721;55.894;-3.052;2023-06-05T07:17:00;102331.05;;;16.47;41.07
80397;BME280;69721;55.894;-3.052;2023-06-05T07:19:26;102336.74;;;16.75;40.41
80397;BME280;69721;55.894;-3.052;2023-06-05T07:21:51;102340.87;;;16.72;40.85
80397;BME280;69721;55.894;-3.052;2023-06-05T07:24:16;102341.67;;;16.64;39.76
80397;BME280;69721;55.894;-3.052;2023-06-05T07:26:42;102341.46;;;16.52;39.99
80397;BME280;69721;55.894;-3.052;2023-06-05T07:29:07;102339.50;;;16.32;40.73
80397;BME280;69721;55.894;-3.052;2023-06-05T07:31:32;102344.29;;;15.79;41.54
80397;BME280;69721;55.894;-3.052;2023-06-05T07:33:58;102346.50;;;14.79;43.64
80397;BME280;69721;55.894;-3.052;2023-06-05T07:36:23;102346.56;;;14.51;44.25
80397;BME280;69721;55.894;-3.052;2023-06-05T07:38:49;102348.48;;;15.03;42.75
80397;BME280;69721;55.894;-3.052;2023-06-05T07:41:14;102349.04;;;15.48;42.11
80397;BME280;69721;55.894;-3.052;2023-06-05T07:43:40;102349.93;;;14.04;44.37
80397;BME280;69721;55.894;-3.052;2023-06-05T07:46:05;102345.95;;;15.96;40.96
80397;BME280;69721;55.894;-3.052;2023-06-05T07:48:30;102349.10;;;17.04;40.52
80397;BME280;69721;55.894;-3.052;2023-06-05T07:50:56;102347.08;;;17.05;39.55
80397;BME280;69721;55.894;-3.052;2023-06-05T07:53:21;102346.66;;;16.79;39.47
80397;BME280;69721;55.894;-3.052;2023-06-05T07:55:47;102343.00;;;16.14;40.68
80397;BME280;69721;55.894;-3.052;2023-06-05T07:58:12;102347.52;;;14.46;44.22
80397;BME280;69721;55.894;-3.052;2023-06-05T08:00:38;102357.25;;;12.51;47.12
80397;BME280;69721;55.894;-3.052;2023-06-05T08:03:03;102355.19;;;13.12;46.70
80397;BME280;69721;55.894;-3.052;2023-06-05T08:07:59;102355.67;;;12.23;48.25
80397;BME280;69721;55.894;-3.052;2023-06-05T08:10:20;102356.63;;;13.57;47.11
80397;BME280;69721;55.894;-3.052;2023-06-05T08:12:45;102353.41;;;14.11;45.40
80397;BME280;69721;55.894;-3.052;2023-06-05T08:15:11;102345.20;;;14.65;44.44
80397;BME280;69721;55.894;-3.052;2023-06-05T08:17:36;102347.95;;;14.94;43.97
80397;BME280;69721;55.894;-3.052;2023-06-05T08:20:02;102349.35;;;15.63;42.70
80397;BME280;69721;55.894;-3.052;2023-06-05T08:22:27;102344.79;;;16.32;41.89
80397;BME280;69721;55.894;-3.052;2023-06-05T08:24:55;102341.91;;;15.92;41.23
80397;BME280;69721;55.894;-3.052;2023-06-05T08:27:20;102342.42;;;16.10;40.96
80397;BME280;69721;55.894;-3.052;2023-06-05T08:29:46;102338.74;;;16.94;39.44
80397;BME280;69721;55.894;-3.052;2023-06-05T08:32:11;102334.20;;;17.51;39.47
80397;BME280;69721;55.894;-3.052;2023-06-05T08:34:36;102336.72;;;15.80;40.68
80397;BME280;69721;55.894;-3.052;2023-06-05T08:37:02;102332.23;;;15.86;40.65
80397;BME280;69721;55.894;-3.052;2023-06-05T08:39:27;102335.37;;;14.52;44.17
80397;BME280;69721;55.894;-3.052;2023-06-05T08:41:54;102336.60;;;14.48;43.40
80397;BME280;69721;55.894;-3.052;2023-06-05T08:44:18;102332.71;;;15.66;41.98
80397;BME280;69721;55.894;-3.052;2023-06-05T08:46:44;102345.90;;;12.90;46.25
80397;BME280;69721;55.894;-3.052;2023-06-05T08:49:10;102339.54;;;15.57;42.28
80397;BME280;69721;55.894;-3.052;2023-06-05T08:51:34;102334.93;;;16.06;41.16
80397;BME280;69721;55.894;-3.052;2023-06-05T08:54:04;102334.38;;;17.11;40.79
80397;BME280;69721;55.894;-3.052;2023-06-05T08:56:25;102332.44;;;17.54;38.86
80397;BME280;69721;55.894;-3.052;2023-06-05T08:58:50;102335.34;;;16.51;40.13
80397;BME280;69721;55.894;-3.052;2023-06-05T09:01:15;102334.42;;;16.49;40.38
80397;BME280;69721;55.894;-3.052;2023-06-05T09:03:41;102332.61;;;16.01;40.76
80397;BME280;69721;55.894;-3.052;2023-06-05T09:06:06;102331.38;;;17.60;39.52
80397;BME280;69721;55.894;-3.052;2023-06-05T09:08:33;102334.73;;;16.30;40.38
80397;BME280;69721;55.894;-3.052;2023-06-05T09:13:22;102330.99;;;18.14;38.03
80397;BME280;69721;55.894;-3.052;2023-06-05T09:15:50;102333.20;;;16.46;39.94
80397;BME280;69721;55.894;-3.052;2023-06-05T09:18:13;102330.81;;;17.64;39.72
80397;BME280;69721;55.894;-3.052;2023-06-05T09:20:40;102331.88;;;16.84;39.38
80397;BME280;69721;55.894;-3.052;2023-06-05T09:25:45;102329.66;;;17.58;37.23
80397;BME280;69721;55.894;-3.052;2023-06-05T09:28:06;102327.96;;;17.88;38.49
80397;BME280;69721;55.894;-3.052;2023-06-05T09:30:21;102330.28;;;17.34;38.62
80397;BME280;69721;55.894;-3.052;2023-06-05T09:32:46;102329.87;;;17.06;40.36
80397;BME280;69721;55.894;-3.052;2023-06-05T09:35:16;102327.16;;;18.06;37.60
80397;BME280;69721;55.894;-3.052;2023-06-05T09:37:37;102324.85;;;18.07;38.52
80397;BME280;69721;55.894;-3.052;2023-06-05T09:40:03;102319.18;;;18.63;37.87
80397;BME280;69721;55.894;-3.052;2023-06-05T09:42:33;102323.69;;;16.70;39.06
80397;BME280;69721;55.894;-3.052;2023-06-05T09:44:58;102324.15;;;16.80;40.34
80397;BME280;69721;55.894;-3.052;2023-06-05T09:47:21;102322.93;;;17.07;40.79
80397;BME280;69721;55.894;-3.052;2023-06-05T09:49:47;102320.62;;;17.64;38.39
80397;BME280;69721;55.894;-3.052;2023-06-05T09:52:11;102316.51;;;19.51;37.07
80397;BME280;69721;55.894;-3.052;2023-06-05T09:54:37;102315.34;;;18.81;36.39
80397;BME280;69721;55.894;-3.052;2023-06-05T09:57:02;102320.33;;;19.33;35.20
80397;BME280;69721;55.894;-3.052;2023-06-05T09:59:28;102329.49;;;15.68;39.76
80397;BME280;69721;55.894;-3.052;2023-06-05T10:01:52;102328.74;;;16.56;38.55
80397;BME280;69721;55.894;-3.052;2023-06-05T10:04:18;102321.94;;;19.30;36.58
80397;BME280;69721;55.894;-3.052;2023-06-05T10:06:42;102323.59;;;18.03;37.05
80397;BME280;69721;55.894;-3.052;2023-06-05T10:09:07;102322.01;;;19.61;35.03
80397;BME280;69721;55.894;-3.052;2023-06-05T10:11:32;102330.26;;;16.16;39.94
80397;BME280;69721;55.894;-3.052;2023-06-05T10:13:57;102316.76;;;18.47;38.62
80397;BME280;69721;55.894;-3.052;2023-06-05T10:16:22;102322.03;;;16.86;37.88
80397;BME280;69721;55.894;-3.052;2023-06-05T10:18:49;102325.75;;;17.53;38.65
80397;BME280;69721;55.894;-3.052;2023-06-05T10:21:14;102316.79;;;19.07;36.83
80397;BME280;69721;55.894;-3.052;2023-06-05T10:23:40;102313.06;;;20.32;35.35
80397;BME280;69721;55.894;-3.052;2023-06-05T10:26:10;102311.13;;;19.14;34.85
80397;BME280;69721;55.894;-3.052;2023-06-05T10:28:40;102314.08;;;17.97;36.61
80397;BME280;69721;55.894;-3.052;2023-06-05T10:31:14;102308.83;;;18.47;36.38
80397;BME280;69721;55.894;-3.052;2023-06-05T10:33:36;102310.29;;;18.53;37.75
80397;BME280;69721;55.894;-3.052;2023-06-05T10:35:50;102308.27;;;20.16;35.42
80397;BME280;69721;55.894;-3.052;2023-06-05T10:38:17;102323.06;;;15.73;40.09
80397;BME280;69721;55.894;-3.052;2023-06-05T10:40:38;102308.49;;;18.83;37.73
80397;BME280;69721;55.894;-3.052;2023-06-05T10:43:25;102302.12;;;17.95;36.80
80397;BME280;69721;55.894;-3.052;2023-06-05T10:45:30;102301.42;;;18.01;37.59
80397;BME280;69721;55.894;-3.052;2023-06-05T10:47:54;102307.49;;;17.14;38.33
80397;BME280;69721;55.894;-3.052;2023-06-05T10:50:22;102302.30;;;17.83;38.04
80397;BME280;69721;55.894;-3.052;2023-06-05T10:52:45;102304.53;;;17.50;38.01
80397;BME280;69721;55.894;-3.052;2023-06-05T10:55:10;102312.87;;;15.82;41.37
80397;BME280;69721;55.894;-3.052;2023-06-05T11:00:05;102315.02;;;16.59;39.92
80397;BME280;69721;55.894;-3.052;2023-06-05T11:02:26;102312.95;;;16.40;41.84
80397;BME280;69721;55.894;-3.052;2023-06-05T11:05:04;102305.06;;;17.20;40.40
80397;BME280;69721;55.894;-3.052;2023-06-05T11:07:17;102311.42;;;14.15;45.53
80397;BME280;69721;55.894;-3.052;2023-06-05T11:12:07;102320.86;;;12.17;50.05
80397;BME280;69721;55.894;-3.052;2023-06-05T11:14:44;102316.36;;;13.14;49.90
80397;BME280;69721;55.894;-3.052;2023-06-05T11:16:58;102312.94;;;13.74;47.30
80397;BME280;69721;55.894;-3.052;2023-06-05T11:19:36;102311.50;;;14.80;45.98
80397;BME280;69721;55.894;-3.052;2023-06-05T11:22:03;102307.41;;;14.04;46.48
80397;BME280;69721;55.894;-3.052;2023-06-05T11:24:15;102304.39;;;14.48;47.04
80397;BME280;69721;55.894;-3.052;2023-06-05T11:26:40;102313.01;;;12.56;51.21
80397;BME280;69721;55.894;-3.052;2023-06-05T11:29:14;102314.36;;;13.04;49.76
80397;BME280;69721;55.894;-3.052;2023-06-05T11:31:30;102318.17;;;13.25;49.39
80397;BME280;69721;55.894;-3.052;2023-06-05T11:33:55;102321.66;;;12.91;49.35
80397;BME280;69721;55.894;-3.052;2023-06-05T11:36:22;102320.67;;;12.23;51.33
80397;BME280;69721;55.894;-3.052;2023-06-05T11:38:53;102316.87;;;12.99;50.94
80397;BME280;69721;55.894;-3.052;2023-06-05T11:41:12;102319.88;;;13.46;48.70
80397;BME280;69721;55.894;-3.052;2023-06-05T11:43:43;102315.33;;;13.95;47.83
80397;BME280;69721;55.894;-3.052;2023-06-05T11:46:05;102317.78;;;13.46;49.00
80397;BME280;69721;55.894;-3.052;2023-06-05T11:48:30;102322.11;;;13.45;49.19
80397;BME280;69721;55.894;-3.052;2023-06-05T11:50:58;102318.84;;;12.84;51.20
80397;BME280;69721;55.894;-3.052;2023-06-05T11:53:22;102310.52;;;14.32;46.83
80397;BME280;69721;55.894;-3.052;2023-06-05T11:55:47;102309.09;;;14.63;46.42
80397;BME280;69721;55.894;-3.052;2023-06-05T11:58:20;102309.06;;;15.64;44.19
80397;BME280;69721;55.894;-3.052;2023-06-05T12:00:38;102318.16;;;13.46;47.23
80397;BME280;69721;55.894;-3.052;2023-06-05T12:03:03;102309.54;;;14.18;47.00
80397;BME280;69721;55.894;-3.052;2023-06-05T12:05:28;102311.35;;;14.08;46.99
80397;BME280;69721;55.894;-3.052;2023-06-05T12:07:54;102307.54;;;14.76;45.76
80397;BME280;69721;55.894;-3.052;2023-06-05T12:10:20;102307.68;;;14.29;46.31
80397;BME280;69721;55.894;-3.052;2023-06-05T12:12:51;102310.67;;;13.91;48.85
80397;BME280;69721;55.894;-3.052;2023-06-05T12:15:14;102312.59;;;14.62;46.13
80397;BME280;69721;55.894;-3.052;2023-06-05T12:17:36;102313.82;;;14.02;46.67
80397;BME280;69721;55.894;-3.052;2023-06-05T12:20:02;102321.74;;;13.42;49.21
80397;BME280;69721;55.894;-3.052;2023-06-05T12:22:33;102309.38;;;14.26;47.62
80397;BME280;69721;55.894;-3.052;2023-06-05T12:24:52;102309.67;;;15.96;44.55
80397;BME280;69721;55.894;-3.052;2023-06-05T12:27:29;102315.44;;;14.66;46.35
80397;BME280;69721;55.894;-3.052;2023-06-05T12:32:19;102314.67;;;14.84;46.57
80397;BME280;69721;55.894;-3.052;2023-06-05T12:34:41;102318.06;;;13.74;48.69
80397;BME280;69721;55.894;-3.052;2023-06-05T12:37:00;102324.60;;;13.13;50.19
80397;BME280;69721;55.894;-3.052;2023-06-05T12:39:25;102330.04;;;12.89;50.60
80397;BME280;69721;55.894;-3.052;2023-06-05T12:41:51;102307.82;;;14.27;49.28
80397;BME280;69721;55.894;-3.052;2023-06-05T12:44:16;102310.18;;;15.45;46.17